Terminal Aerodrome Forecast
Issued by NWS Lake Charles, LA

Home | Current Version | Previous Version | Text Only | Print | Product List | Glossary On
Versions: 1 2 3 4 5 6 7 8 9 10 11 12 13 14 15 16
594
FTUS44 KLCH 211120
TAFLCH
TAF
KLCH 211120Z 2112/2212 VRB03KT P6SM FEW250
     FM211500 15006KT P6SM SCT025
     FM220000 VRB04KT P6SM FEW200=

USA.gov is the U.S. government's official web portal to all federal, state and local government web resources and services.